Time;durP1;ratioP1;P1;durP2;ratioP2;P2;SDS_P1;SDS_P2;PMS_P1;PMS_P2;Temp;Humidity;BMP_temperature;BMP_pressure;BME280_temperature;BME280_humidity;BME280_pressure;Samples;Min_cycle;Max_cycle;Signal;HPM_P1;HPM_P2
2022/01/28 00:00:13;;;;;;;17.73;2.53;;;4.50;99.90;;;;;;4820611;29;20061;-82
2022/01/28 00:03:00;;;;;;;7.93;1.08;;;4.50;99.90;;;;;;4836589;29;20042;-82
2022/01/28 00:05:25;;;;;;;11.13;1.20;;;4.50;99.90;;;;;;4819746;29;20058;-82
2022/01/28 00:07:53;;;;;;;9.77;1.02;;;4.50;99.90;;;;;;4825811;29;20041;-82
2022/01/28 00:10:21;;;;;;;11.55;1.17;;;4.50;99.90;;;;;;4820650;29;20038;-82
2022/01/28 00:15:37;;;;;;;17.77;1.42;;;4.40;99.90;;;;;;4818050;29;20444;-83
2022/01/28 04:11:36;;;;;;;9.98;1.23;;;4.60;99.90;;;;;;4727452;30;20044;-82
2022/01/28 04:44:16;;;;;;;13.20;1.60;;;4.40;99.90;;;;;;4744767;30;20391;-83
2022/01/28 06:11:35;;;;;;;10.95;1.13;;;3.90;99.90;;;;;;4688390;30;20053;-82
2022/01/28 06:14:46;;;;;;;8.55;1.73;;;3.90;99.90;;;;;;4714161;30;20056;-83
2022/01/28 06:17:11;;;;;;;15.15;1.40;;;3.80;99.90;;;;;;4711801;30;20481;-83
2022/01/28 06:19:56;;;;;;;12.93;2.15;;;3.80;99.90;;;;;;4716094;30;20048;-83
2022/01/28 06:22:24;;;;;;;9.80;1.10;;;3.70;99.90;;;;;;4714301;30;20044;-83
2022/01/28 06:24:55;;;;;;;11.68;1.85;;;3.60;99.90;;;;;;4721575;30;20048;-83
2022/01/28 06:27:27;;;;;;;13.80;1.25;;;3.50;99.90;;;;;;4728987;30;20143;-83
2022/01/28 06:30:29;;;;;;;9.85;1.75;;;3.40;99.90;;;;;;4715656;30;20110;-83
2022/01/28 06:33:01;;;;;;;10.23;1.40;;;3.30;99.90;;;;;;4643650;30;20469;-83
2022/01/28 06:35:30;;;;;;;17.08;2.22;;;3.30;99.90;;;;;;4720648;30;20404;-83
2022/01/28 06:37:59;;;;;;;10.07;1.45;;;3.10;99.90;;;;;;4713761;30;20044;-83
2022/01/28 06:40:25;;;;;;;15.82;2.75;;;3.10;99.90;;;;;;4714413;30;20052;-83
2022/01/28 06:43:01;;;;;;;21.70;1.35;;;3.00;99.90;;;;;;4726612;30;20056;-83
2022/01/28 06:45:29;;;;;;;11.25;2.38;;;2.90;99.90;;;;;;4713147;30;20049;-83
2022/01/28 06:47:59;;;;;;;15.05;1.73;;;2.90;99.90;;;;;;4736415;24;20064;-82
2022/01/28 06:50:28;;;;;;;12.50;1.23;;;2.80;99.90;;;;;;4728926;30;20065;-82
2022/01/28 06:52:57;;;;;;;12.85;1.70;;;2.80;99.90;;;;;;4712003;30;20689;-83
2022/01/28 06:55:32;;;;;;;10.75;1.45;;;2.80;99.90;;;;;;4713393;30;20185;-83
2022/01/28 06:58:18;;;;;;;21.25;2.60;;;2.70;99.90;;;;;;4721119;30;20045;-83
2022/01/28 07:00:44;;;;;;;17.90;2.13;;;2.60;99.90;;;;;;4708057;30;20049;-83
2022/01/28 07:03:24;;;;;;;12.13;1.73;;;2.60;99.90;;;;;;4698046;30;20371;-81
2022/01/28 07:05:49;;;;;;;11.57;1.80;;;2.60;99.90;;;;;;4712086;30;20049;-82
2022/01/28 07:08:28;;;;;;;11.43;1.70;;;2.60;99.90;;;;;;4699629;30;20114;-82
2022/01/28 07:10:53;;;;;;;13.93;2.67;;;2.50;99.90;;;;;;4725897;30;20106;-82
2022/01/28 07:13:19;;;;;;;20.30;1.90;;;2.50;99.90;;;;;;4711112;30;20053;-82
2022/01/28 07:15:45;;;;;;;11.77;1.42;;;2.50;99.90;;;;;;4688831;30;26473;-82
2022/01/28 07:18:10;;;;;;;13.88;2.10;;;2.50;99.90;;;;;;4693538;30;20072;-82
2022/01/28 07:20:36;;;;;;;12.68;2.40;;;2.60;99.90;;;;;;4695540;30;20103;-82
2022/01/28 07:23:02;;;;;;;15.25;1.90;;;2.60;99.90;;;;;;4712328;30;20076;-82
2022/01/28 07:25:28;;;;;;;11.32;1.90;;;2.60;99.90;;;;;;4677629;30;20077;-82
2022/01/28 07:27:54;;;;;;;10.48;1.20;;;2.60;99.90;;;;;;4697831;30;20468;-82
2022/01/28 07:30:19;;;;;;;8.90;1.70;;;2.60;99.90;;;;;;4697817;30;20052;-82
2022/01/28 07:32:48;;;;;;;12.60;1.58;;;2.70;99.90;;;;;;4701569;30;20079;-82
2022/01/28 07:35:14;;;;;;;13.50;1.42;;;2.60;99.90;;;;;;4696914;30;20056;-82
2022/01/28 07:37:39;;;;;;;17.27;2.22;;;2.60;99.90;;;;;;4698305;30;20049;-82
2022/01/28 07:40:06;;;;;;;13.43;1.92;;;2.60;99.90;;;;;;4695693;30;20533;-82
2022/01/28 07:42:34;;;;;;;18.35;2.05;;;2.70;99.90;;;;;;4696465;30;20401;-82
2022/01/28 07:45:00;;;;;;;11.60;1.20;;;2.70;99.90;;;;;;4699022;30;20092;-82
2022/01/28 07:47:26;;;;;;;13.80;2.45;;;2.70;99.90;;;;;;4696635;30;20103;-82
2022/01/28 07:49:52;;;;;;;13.27;1.73;;;2.70;99.90;;;;;;4699355;30;20068;-82
2022/01/28 07:52:17;;;;;;;15.73;2.70;;;2.70;99.90;;;;;;4692411;30;20076;-82
2022/01/28 07:54:48;;;;;;;10.85;1.42;;;2.70;99.90;;;;;;4709508;30;20135;-83
2022/01/28 07:57:13;;;;;;;17.08;2.50;;;2.70;99.90;;;;;;4705912;30;20488;-82
2022/01/28 07:59:39;;;;;;;12.43;1.48;;;2.80;99.90;;;;;;4699989;30;20048;-82
2022/01/28 08:02:05;;;;;;;12.77;1.42;;;2.80;99.90;;;;;;4703573;30;20049;-82
2022/01/28 08:04:31;;;;;;;15.68;1.63;;;2.90;99.90;;;;;;4697712;30;20064;-83
2022/01/28 08:06:56;;;;;;;20.90;1.95;;;2.90;99.90;;;;;;4700581;30;20068;-82
2022/01/28 08:09:22;;;;;;;15.65;2.33;;;2.90;99.90;;;;;;4701057;30;20112;-82
2022/01/28 08:11:48;;;;;;;14.43;1.60;;;2.90;99.90;;;;;;4700773;30;20536;-82
2022/01/28 08:14:14;;;;;;;15.95;1.35;;;2.90;99.90;;;;;;4701932;30;20500;-83
2022/01/28 08:16:40;;;;;;;13.23;2.00;;;2.90;99.90;;;;;;4700079;30;20053;-82
2022/01/28 08:19:05;;;;;;;12.85;1.20;;;2.80;99.90;;;;;;4702429;30;20037;-82
2022/01/28 08:21:31;;;;;;;14.10;1.80;;;2.80;99.90;;;;;;4698770;30;20053;-82
2022/01/28 08:23:57;;;;;;;20.65;2.60;;;2.80;99.90;;;;;;4688669;30;20477;-82
2022/01/28 08:26:23;;;;;;;13.55;2.38;;;2.80;99.90;;;;;;4700041;30;20044;-82
2022/01/28 08:28:48;;;;;;;19.17;3.50;;;2.80;99.90;;;;;;4699821;30;20126;-82
2022/01/28 08:31:14;;;;;;;25.95;4.53;;;2.90;99.90;;;;;;4700691;30;20128;-82
2022/01/28 08:34:09;;;;;;;28.67;7.05;;;2.80;99.90;;;;;;4701440;30;20045;-82
2022/01/28 08:36:44;;;;;;;25.95;6.28;;;2.90;99.90;;;;;;4715391;30;20057;-82
2022/01/28 08:39:24;;;;;;;26.20;6.15;;;3.00;99.90;;;;;;4704269;30;20063;-82
2022/01/28 08:41:58;;;;;;;29.98;5.53;;;3.10;99.90;;;;;;4697478;30;20088;-82
2022/01/28 08:44:27;;;;;;;27.33;5.20;;;3.20;99.90;;;;;;4714559;30;20131;-82
2022/01/28 09:48:05;;;;;;;25.33;3.40;;;5.20;99.90;;;;;;4726935;30;20044;-82
2022/01/28 09:50:52;;;;;;;17.50;3.17;;;5.30;99.90;;;;;;4708646;30;20415;-82
2022/01/28 09:53:21;;;;;;;24.75;3.40;;;5.30;99.90;;;;;;4727079;30;20501;-82
2022/01/28 09:55:47;;;;;;;14.57;1.92;;;5.30;99.90;;;;;;4728410;30;20049;-82
2022/01/28 09:58:14;;;;;;;15.70;3.47;;;5.30;99.90;;;;;;4726337;30;20419;-82
2022/01/28 10:00:39;;;;;;;13.40;2.08;;;5.30;99.90;;;;;;4722408;30;20067;-82
2022/01/28 10:03:08;;;;;;;15.60;2.10;;;5.30;99.90;;;;;;4729112;30;20511;-82
2022/01/28 10:05:38;;;;;;;9.48;1.42;;;5.40;99.90;;;;;;4728787;30;20061;-82
2022/01/28 10:08:15;;;;;;;19.17;2.05;;;5.40;99.90;;;;;;4740553;30;20151;-82
2022/01/28 10:10:43;;;;;;;15.65;2.47;;;5.50;99.90;;;;;;4723210;30;20144;-82
2022/01/28 10:13:11;;;;;;;14.85;3.10;;;5.50;99.90;;;;;;4725407;30;20495;-82
2022/01/28 10:16:02;;;;;;;19.75;4.60;;;5.60;99.90;;;;;;4728617;30;20159;-82
2022/01/28 10:18:58;;;;;;;23.58;4.55;;;5.60;99.90;;;;;;4728571;30;20416;-82
2022/01/28 10:21:37;;;;;;;22.83;4.90;;;5.70;99.90;;;;;;4723382;30;20159;-81
2022/01/28 10:24:09;;;;;;;23.52;5.03;;;5.80;99.90;;;;;;4728434;30;20056;-82
2022/01/28 10:26:37;;;;;;;17.35;4.63;;;5.80;99.90;;;;;;4732744;30;20496;-82
2022/01/28 10:29:07;;;;;;;24.67;2.85;;;5.90;99.90;;;;;;4727729;30;20063;-82
2022/01/28 10:31:35;;;;;;;17.67;2.38;;;6.00;99.90;;;;;;4713109;30;20052;-82
2022/01/28 10:34:33;;;;;;;17.58;3.13;;;6.10;99.90;;;;;;4726079;30;20495;-82
2022/01/28 10:37:11;;;;;;;17.83;2.67;;;6.20;99.90;;;;;;4689667;30;20195;-82
2022/01/28 10:39:57;;;;;;;21.67;3.25;;;6.30;99.90;;;;;;4722860;30;20043;-82
2022/01/28 10:42:25;;;;;;;21.17;3.95;;;6.40;99.90;;;;;;4722215;30;20131;-82
2022/01/28 10:44:58;;;;;;;18.00;2.83;;;6.50;99.90;;;;;;4711819;30;20048;-82
2022/01/28 10:47:29;;;;;;;17.52;2.33;;;6.50;99.90;;;;;;4729998;30;21141;-82
2022/01/28 10:49:56;;;;;;;20.10;2.77;;;6.60;99.90;;;;;;4738466;30;20740;-82
2022/01/28 10:52:35;;;;;;;13.60;2.75;;;6.60;99.90;;;;;;4722062;30;20315;-82
2022/01/28 10:55:01;;;;;;;15.88;3.08;;;6.60;99.90;;;;;;4718770;30;20132;-82
2022/01/28 10:57:29;;;;;;;21.25;3.53;;;6.60;99.90;;;;;;4726387;30;20083;-82
2022/01/28 10:59:56;;;;;;;23.00;3.55;;;6.60;99.90;;;;;;4727197;30;20085;-82
2022/01/28 11:02:25;;;;;;;13.20;3.22;;;6.70;99.90;;;;;;4728702;30;20063;-82
2022/01/28 11:04:54;;;;;;;16.20;2.85;;;6.70;99.90;;;;;;4729197;30;20223;-82
2022/01/28 11:07:20;;;;;;;16.30;3.95;;;6.70;99.90;;;;;;4725982;30;20052;-82
2022/01/28 11:09:46;;;;;;;17.30;3.85;;;6.70;99.90;;;;;;4728231;30;20056;-82
2022/01/28 11:12:13;;;;;;;25.77;5.57;;;6.70;99.90;;;;;;4725576;30;20040;-82
2022/01/28 11:14:39;;;;;;;24.70;5.32;;;6.80;99.90;;;;;;4727738;30;20048;-82
2022/01/28 11:17:05;;;;;;;18.83;4.80;;;6.90;99.90;;;;;;4727133;30;20101;-82
2022/01/28 11:19:34;;;;;;;18.98;3.83;;;7.00;99.90;;;;;;4726131;30;20238;-82
2022/01/28 11:22:20;;;;;;;17.38;3.67;;;7.00;99.90;;;;;;4724803;30;20118;-83
2022/01/28 11:25:00;;;;;;;16.83;2.90;;;7.00;99.90;;;;;;4725782;30;20044;-82
2022/01/28 11:27:33;;;;;;;22.70;3.92;;;7.00;99.90;;;;;;4725974;30;20036;-82
2022/01/28 11:30:28;;;;;;;19.30;3.50;;;7.10;99.90;;;;;;4715054;30;20032;-82
2022/01/28 11:33:01;;;;;;;18.27;3.45;;;7.10;99.90;;;;;;4722846;30;20061;-82
2022/01/28 11:35:55;;;;;;;21.23;3.90;;;7.00;99.90;;;;;;4736770;30;20084;-82
2022/01/28 11:38:24;;;;;;;20.52;4.53;;;7.00;99.90;;;;;;4718896;30;20084;-82
2022/01/28 11:40:57;;;;;;;24.63;4.05;;;7.00;99.90;;;;;;4723444;30;20071;-82
2022/01/28 11:43:28;;;;;;;19.50;4.32;;;7.00;99.90;;;;;;4727003;30;20107;-82
2022/01/28 11:46:07;;;;;;;18.13;3.13;;;7.00;99.90;;;;;;4711891;30;20063;-82
2022/01/28 11:48:51;;;;;;;22.15;3.20;;;7.00;99.90;;;;;;4733808;30;20116;-82
2022/01/28 11:51:20;;;;;;;15.45;3.10;;;7.10;99.90;;;;;;4740715;30;20031;-82
2022/01/28 11:54:00;;;;;;;13.20;1.98;;;7.10;99.90;;;;;;4711388;30;20416;-83
2022/01/28 11:56:27;;;;;;;13.98;2.20;;;7.10;99.90;;;;;;4727942;30;20096;-82
2022/01/28 11:58:59;;;;;;;15.25;2.22;;;7.10;99.90;;;;;;4727218;30;20506;-83
2022/01/28 12:01:45;;;;;;;9.90;1.75;;;7.20;99.90;;;;;;4723082;30;20488;-83
2022/01/28 12:04:31;;;;;;;13.90;1.98;;;7.30;99.90;;;;;;4725532;30;20428;-82
2022/01/28 12:07:13;;;;;;;14.45;2.90;;;7.60;99.90;;;;;;4722235;30;20496;-82
2022/01/28 12:09:40;;;;;;;14.98;2.58;;;8.60;99.90;;;;;;4725839;30;20518;-82
2022/01/28 12:12:10;;;;;;;11.52;2.25;;;9.50;99.90;;;;;;4724396;30;20056;-82
2022/01/28 12:15:15;;;;;;;10.13;1.63;;;9.90;99.90;;;;;;4722026;30;20044;-83
2022/01/28 12:17:47;;;;;;;13.43;2.08;;;10.50;99.90;;;;;;4734812;30;20400;-83
2022/01/28 12:20:15;;;;;;;17.15;2.30;;;10.90;98.10;;;;;;4741307;30;20052;-83
2022/01/28 12:23:02;;;;;;;15.70;2.22;;;11.20;96.80;;;;;;4727705;30;20493;-83
2022/01/28 12:25:39;;;;;;;15.60;2.05;;;11.50;92.50;;;;;;4725825;30;20187;-83
2022/01/28 12:28:17;;;;;;;18.75;2.15;;;11.90;93.20;;;;;;4725072;30;20544;-83
2022/01/28 12:30:46;;;;;;;11.30;1.98;;;12.00;92.30;;;;;;4710917;30;20407;-83
2022/01/28 12:33:12;;;;;;;9.77;1.60;;;11.80;95.10;;;;;;4720380;30;20140;-83
2022/01/28 12:35:39;;;;;;;15.93;2.10;;;11.60;96.00;;;;;;4709740;30;20594;-83
2022/01/28 12:38:06;;;;;;;10.02;1.55;;;11.50;93.30;;;;;;4721427;30;20083;-83
2022/01/28 12:40:36;;;;;;;14.77;2.20;;;11.20;94.40;;;;;;4709857;30;20045;-83
2022/01/28 12:43:07;;;;;;;13.13;2.10;;;11.10;92.80;;;;;;4728348;30;20099;-82
2022/01/28 12:45:33;;;;;;;12.82;2.08;;;11.50;87.70;;;;;;4723102;30;20051;-83
2022/01/28 12:47:59;;;;;;;12.98;1.83;;;11.60;91.40;;;;;;4729750;30;20201;-83
2022/01/28 12:50:28;;;;;;;12.23;1.73;;;12.00;90.80;;;;;;4729137;30;20469;-83
2022/01/28 12:52:54;;;;;;;13.20;1.67;;;12.00;88.80;;;;;;4729173;30;20110;-83
2022/01/28 12:55:20;;;;;;;16.17;1.95;;;12.20;83.70;;;;;;4728918;30;20151;-83
2022/01/28 12:57:47;;;;;;;10.38;1.88;;;12.30;86.40;;;;;;4728080;30;20052;-83
2022/01/28 13:00:14;;;;;;;10.75;1.40;;;12.40;86.10;;;;;;4730823;30;20076;-83
2022/01/28 13:02:49;;;;;;;11.90;1.70;;;12.00;86.80;;;;;;4713845;30;20132;-83
2022/01/28 13:05:16;;;;;;;6.88;1.27;;;11.80;85.70;;;;;;4723468;30;20052;-83
2022/01/28 13:10:29;;;;;;;12.10;2.05;;;11.90;82.60;;;;;;4734813;30;20055;-83
2022/01/28 13:13:06;;;;;;;11.25;1.80;;;11.50;80.00;;;;;;4732665;30;20150;-83
2022/01/28 13:15:33;;;;;;;12.70;2.03;;;11.10;82.30;;;;;;4724551;30;20139;-83
2022/01/28 13:18:02;;;;;;;13.68;2.70;;;10.70;88.10;;;;;;4730531;30;20049;-83
2022/01/28 13:20:38;;;;;;;16.20;1.95;;;10.90;86.70;;;;;;4725431;30;20040;-83
2022/01/28 13:23:04;;;;;;;11.43;1.65;;;11.30;80.30;;;;;;4726126;30;20068;-83
2022/01/28 13:25:29;;;;;;;14.95;1.58;;;11.60;86.10;;;;;;4725928;30;20071;-83
2022/01/28 13:27:59;;;;;;;13.43;2.20;;;11.70;85.40;;;;;;4730304;30;20052;-83
2022/01/28 13:30:27;;;;;;;10.98;1.70;;;11.70;80.70;;;;;;4732880;30;20053;-83
2022/01/28 13:33:00;;;;;;;10.82;1.30;;;11.70;83.00;;;;;;4725558;30;20045;-83
2022/01/28 13:35:26;;;;;;;14.05;1.95;;;11.70;83.70;;;;;;4710743;30;20465;-83
2022/01/28 13:37:57;;;;;;;12.43;2.30;;;11.40;82.20;;;;;;4726495;30;20071;-83
2022/01/28 13:40:31;;;;;;;10.73;1.60;;;11.00;84.10;;;;;;4726006;30;20059;-83
2022/01/28 13:43:06;;;;;;;13.70;1.35;;;10.60;88.10;;;;;;4712618;30;20445;-83
2022/01/28 13:45:39;;;;;;;8.75;1.20;;;10.40;90.80;;;;;;4731640;30;20484;-83
2022/01/28 13:48:32;;;;;;;12.43;1.88;;;10.50;91.70;;;;;;4732589;30;20067;-83
2022/01/28 13:51:06;;;;;;;10.20;1.75;;;10.70;86.50;;;;;;4702819;30;20385;-81
2022/01/28 13:54:19;;;;;;;12.13;1.70;;;10.80;88.40;;;;;;4716167;30;20095;-83
2022/01/28 13:57:07;;;;;;;11.93;1.30;;;10.80;87.70;;;;;;4741454;30;20637;-84
2022/01/28 13:59:54;;;;;;;11.73;1.60;;;10.80;91.10;;;;;;4731615;30;20056;-86
2022/01/28 14:10:15;;;;;;;9.00;1.13;;;10.80;90.90;;;;;;4691996;30;20499;-85
2022/01/28 14:12:52;;;;;;;8.65;1.45;;;10.70;91.00;;;;;;4658540;30;20069;-86
2022/01/28 14:15:32;;;;;;;12.80;2.45;;;10.60;92.20;;;;;;4666830;30;20062;-85
2022/01/28 14:18:02;;;;;;;14.82;3.40;;;10.40;90.40;;;;;;4678619;30;20378;-86
2022/01/28 14:20:27;;;;;;;16.77;4.53;;;10.50;91.00;;;;;;4673544;30;20088;-86
2022/01/28 14:22:53;;;;;;;15.30;4.72;;;10.50;86.30;;;;;;4723702;30;20143;-86
2022/01/28 14:25:20;;;;;;;13.75;3.17;;;10.40;90.30;;;;;;4709192;30;20055;-86
2022/01/28 14:27:59;;;;;;;10.73;2.28;;;10.30;90.70;;;;;;4729970;30;20583;-86
2022/01/28 14:30:42;;;;;;;13.35;2.58;;;10.40;91.20;;;;;;4725017;30;20102;-86
2022/01/28 14:33:10;;;;;;;13.27;2.60;;;10.30;89.80;;;;;;4739717;30;20063;-86
2022/01/28 14:35:38;;;;;;;8.07;1.10;;;10.20;91.80;;;;;;4728992;30;20060;-86
2022/01/28 14:38:05;;;;;;;12.73;1.73;;;10.10;92.40;;;;;;4728082;30;20048;-86
2022/01/28 14:40:31;;;;;;;10.27;1.30;;;10.10;92.70;;;;;;4705055;30;20053;-86
2022/01/28 14:42:57;;;;;;;7.40;1.08;;;10.00;93.10;;;;;;4727255;30;20451;-86
2022/01/28 14:45:22;;;;;;;8.30;1.10;;;9.70;93.50;;;;;;4725239;30;20076;-86
2022/01/28 14:47:48;;;;;;;7.60;0.90;;;9.40;95.10;;;;;;4715286;30;20053;-86
2022/01/28 14:50:17;;;;;;;14.05;1.30;;;9.20;96.20;;;;;;4728517;30;20049;-85
2022/01/28 14:52:43;;;;;;;7.07;0.63;;;9.00;97.40;;;;;;4726406;30;20106;-86
2022/01/28 14:55:08;;;;;;;8.00;1.17;;;8.80;98.20;;;;;;4732713;30;20096;-86
2022/01/28 14:57:34;;;;;;;9.40;0.80;;;8.70;99.00;;;;;;4709439;30;20049;-86
2022/01/28 15:00:00;;;;;;;10.90;1.13;;;8.60;99.20;;;;;;4723350;30;20523;-86
2022/01/28 15:02:27;;;;;;;11.20;1.42;;;8.50;99.90;;;;;;4726901;30;20385;-86
2022/01/28 15:05:04;;;;;;;8.13;1.33;;;8.40;99.90;;;;;;4738410;30;20158;-86
2022/01/28 15:07:32;;;;;;;13.18;2.60;;;8.30;99.90;;;;;;4708512;30;20155;-86
2022/01/28 15:10:00;;;;;;;10.07;2.17;;;8.10;99.90;;;;;;4724170;30;20113;-86
2022/01/28 15:12:29;;;;;;;13.20;3.63;;;8.10;99.90;;;;;;4726490;30;20045;-86
2022/01/28 15:14:55;;;;;;;14.05;3.20;;;8.00;99.90;;;;;;4725307;30;20055;-86
2022/01/28 15:17:20;;;;;;;15.40;4.13;;;8.00;99.90;;;;;;4723448;30;20056;-86
2022/01/28 15:19:48;;;;;;;12.63;3.30;;;7.90;99.90;;;;;;4715998;30;20258;-86
2022/01/28 15:22:13;;;;;;;15.20;2.95;;;7.80;99.90;;;;;;4726267;30;20048;-86
2022/01/28 15:24:39;;;;;;;12.10;2.20;;;7.80;99.90;;;;;;4725922;30;20136;-86
2022/01/28 15:27:05;;;;;;;15.45;2.05;;;7.70;99.90;;;;;;4725062;30;20048;-86
2022/01/28 15:37:32;;;;;;;35.78;12.05;;;7.50;99.90;;;;;;4723549;30;20057;-86
2022/01/28 15:39:58;;;;;;;17.85;5.10;;;7.50;99.90;;;;;;4723934;30;20056;-86
2022/01/28 15:42:24;;;;;;;16.88;3.00;;;7.40;99.90;;;;;;4725665;30;20038;-86
2022/01/28 15:44:49;;;;;;;8.02;1.15;;;7.30;99.90;;;;;;4707522;30;20049;-86
2022/01/28 15:47:15;;;;;;;5.15;0.75;;;7.30;99.90;;;;;;4725299;30;20052;-86
2022/01/28 15:49:42;;;;;;;12.15;1.15;;;7.20;99.90;;;;;;4707104;30;20143;-86
2022/01/28 15:52:09;;;;;;;8.60;0.77;;;7.20;99.90;;;;;;4708686;30;20079;-85
2022/01/28 15:54:35;;;;;;;8.82;1.13;;;7.20;99.90;;;;;;4722687;30;20385;-85
2022/01/28 15:57:01;;;;;;;10.27;1.08;;;7.10;99.90;;;;;;4721935;30;20044;-85
2022/01/28 15:59:27;;;;;;;13.38;1.20;;;7.10;99.90;;;;;;4718594;30;20044;-85
2022/01/28 16:01:52;;;;;;;5.22;1.08;;;7.00;99.90;;;;;;4710386;30;20049;-86
2022/01/28 16:04:18;;;;;;;7.43;1.17;;;7.00;99.90;;;;;;4719992;30;20178;-86
2022/01/28 16:06:47;;;;;;;8.25;1.35;;;6.90;99.90;;;;;;4707449;30;20683;-86
2022/01/28 16:09:13;;;;;;;9.13;1.25;;;6.90;99.90;;;;;;4729370;30;20071;-86
2022/01/28 16:11:49;;;;;;;10.40;1.27;;;6.90;99.90;;;;;;4721527;30;20503;-86
2022/01/28 16:14:18;;;;;;;8.95;1.10;;;6.90;99.90;;;;;;4709778;30;20484;-85
2022/01/28 16:19:31;;;;;;;5.85;0.95;;;6.80;99.90;;;;;;4721019;30;20488;-86
2022/01/28 16:21:58;;;;;;;8.73;1.58;;;6.80;99.90;;;;;;4727628;30;20503;-86
2022/01/28 16:24:24;;;;;;;12.77;1.30;;;6.70;99.90;;;;;;4714708;30;20056;-86
2022/01/28 16:26:54;;;;;;;5.93;1.40;;;6.70;99.90;;;;;;4727058;30;20072;-86
2022/01/28 16:29:21;;;;;;;7.50;1.30;;;6.70;99.90;;;;;;4728849;30;20639;-86
2022/01/28 16:31:47;;;;;;;6.60;1.00;;;6.60;99.90;;;;;;4724999;30;20526;-86
2022/01/28 16:34:16;;;;;;;5.60;0.98;;;6.60;99.90;;;;;;4709657;30;20076;-86
2022/01/28 16:36:46;;;;;;;6.38;1.35;;;6.60;99.90;;;;;;4723131;30;20059;-85
2022/01/28 16:39:13;;;;;;;9.70;1.48;;;6.50;99.90;;;;;;4713481;30;20444;-85
2022/01/28 16:41:43;;;;;;;10.40;1.30;;;6.50;99.90;;;;;;4704079;30;20053;-85
2022/01/28 16:44:13;;;;;;;7.70;1.30;;;6.50;99.90;;;;;;4732741;30;20033;-85
2022/01/28 16:46:43;;;;;;;5.93;1.58;;;6.50;99.90;;;;;;4716958;30;20072;-85
2022/01/28 16:49:11;;;;;;;8.95;1.27;;;6.50;99.90;;;;;;4719438;30;20131;-85
2022/01/28 16:51:37;;;;;;;9.02;2.45;;;6.40;99.90;;;;;;4729638;30;20033;-85
2022/01/28 16:54:04;;;;;;;5.88;1.20;;;6.40;99.90;;;;;;4731514;30;20439;-85
2022/01/28 16:56:34;;;;;;;6.18;1.35;;;6.40;99.90;;;;;;4730984;30;20067;-85
2022/01/28 16:59:00;;;;;;;9.80;1.48;;;6.40;99.90;;;;;;4722263;30;20048;-85
2022/01/28 17:01:26;;;;;;;6.03;1.17;;;6.40;99.90;;;;;;4718117;30;20052;-85
2022/01/28 17:03:52;;;;;;;7.40;1.60;;;6.30;99.90;;;;;;4719736;30;20082;-85
2022/01/28 17:10:07;;;;;;;5.95;1.10;;;6.30;99.90;;;;;;4730251;30;20071;-85
2022/01/28 17:12:36;;;;;;;10.55;1.90;;;6.30;99.90;;;;;;4731044;30;20053;-85
2022/01/28 17:15:07;;;;;;;8.27;1.13;;;6.20;99.90;;;;;;4724208;30;20045;-85
2022/01/28 17:17:33;;;;;;;7.03;1.40;;;6.20;99.90;;;;;;4718118;30;20060;-85
2022/01/28 17:19:58;;;;;;;5.07;0.95;;;6.20;99.90;;;;;;4718242;30;20476;-85
2022/01/28 17:22:24;;;;;;;8.20;1.17;;;6.20;99.90;;;;;;4731982;30;20162;-85
2022/01/28 17:24:50;;;;;;;4.47;1.08;;;6.10;99.90;;;;;;4717229;30;20488;-85
2022/01/28 17:27:17;;;;;;;5.13;1.27;;;6.10;99.90;;;;;;4715289;30;20458;-86
2022/01/28 17:29:43;;;;;;;7.68;1.33;;;6.10;99.90;;;;;;4730079;30;20150;-85
2022/01/28 17:32:09;;;;;;;8.48;1.63;;;6.10;99.90;;;;;;4733017;30;20119;-85
2022/01/28 17:34:35;;;;;;;6.85;1.00;;;6.10;99.90;;;;;;4732894;30;20131;-87
2022/01/28 17:37:01;;;;;;;8.38;1.33;;;6.10;99.90;;;;;;4716381;30;20049;-85
2022/01/28 17:39:26;;;;;;;5.28;0.88;;;6.10;99.90;;;;;;4730241;30;20408;-85
2022/01/28 17:41:52;;;;;;;4.85;0.75;;;6.10;99.90;;;;;;4713292;30;20151;-85
2022/01/28 17:44:18;;;;;;;8.00;1.10;;;6.10;99.90;;;;;;4713503;30;20048;-85
2022/01/28 17:46:43;;;;;;;9.43;1.40;;;6.10;99.90;;;;;;4715999;30;20052;-85
2022/01/28 17:49:09;;;;;;;4.80;1.00;;;6.20;99.90;;;;;;4722704;30;20049;-84
2022/01/28 17:51:34;;;;;;;7.47;0.90;;;6.20;99.90;;;;;;4731498;30;20044;-85
2022/01/28 17:54:00;;;;;;;6.22;1.55;;;6.10;99.90;;;;;;4728450;30;20036;-86
2022/01/28 17:56:26;;;;;;;5.28;1.20;;;6.20;99.90;;;;;;4717696;30;20044;-85
2022/01/28 17:58:51;;;;;;;4.57;1.17;;;6.10;99.90;;;;;;4724404;30;20057;-85
2022/01/28 18:01:17;;;;;;;5.63;1.02;;;6.10;99.90;;;;;;4731434;30;20072;-85
2022/01/28 18:03:43;;;;;;;7.63;1.35;;;6.10;99.90;;;;;;4729600;30;20125;-85
2022/01/28 18:06:08;;;;;;;6.05;1.27;;;6.10;99.90;;;;;;4747979;30;20469;-84
2022/01/28 18:08:35;;;;;;;10.00;1.70;;;6.10;99.90;;;;;;4732944;30;20049;-85
2022/01/28 18:11:01;;;;;;;5.35;1.60;;;6.10;99.90;;;;;;4739245;30;20522;-85
2022/01/28 18:13:28;;;;;;;8.07;1.35;;;6.10;99.90;;;;;;4716391;30;20036;-85
2022/01/28 18:15:54;;;;;;;11.27;2.17;;;6.10;99.90;;;;;;4696974;30;20063;-84
2022/01/28 18:18:20;;;;;;;5.32;1.02;;;6.10;99.90;;;;;;4728785;30;20049;-85
2022/01/28 18:20:52;;;;;;;10.57;1.33;;;6.10;99.90;;;;;;4730329;30;20048;-85
2022/01/28 18:23:17;;;;;;;6.93;2.10;;;6.10;99.90;;;;;;4730878;30;20060;-85
2022/01/28 18:25:43;;;;;;;6.72;1.60;;;6.20;99.90;;;;;;4730098;30;20056;-85
2022/01/28 18:28:09;;;;;;;12.02;2.38;;;6.10;99.90;;;;;;4728850;30;20064;-85
2022/01/28 18:30:35;;;;;;;8.30;2.03;;;6.10;99.90;;;;;;4732502;30;20049;-85
2022/01/28 18:33:02;;;;;;;7.22;2.20;;;6.20;99.90;;;;;;4731077;30;20048;-84
2022/01/28 18:35:29;;;;;;;9.05;2.40;;;6.20;99.90;;;;;;4729681;30;20045;-85
2022/01/28 18:37:55;;;;;;;10.25;2.45;;;6.30;99.90;;;;;;4717865;30;20052;-85
2022/01/28 18:40:22;;;;;;;9.55;2.22;;;6.30;99.90;;;;;;4717971;30;20055;-85
2022/01/28 18:45:16;;;;;;;7.65;2.10;;;6.40;99.90;;;;;;4729583;30;20053;-85
2022/01/28 18:47:42;;;;;;;11.35;2.88;;;6.40;99.90;;;;;;4717754;30;20064;-85
2022/01/28 18:50:11;;;;;;;8.35;3.03;;;6.50;99.90;;;;;;4730104;30;20380;-84
2022/01/28 18:52:37;;;;;;;6.40;2.65;;;6.50;99.90;;;;;;4731987;30;20072;-85
2022/01/28 18:55:05;;;;;;;12.27;3.60;;;6.60;99.90;;;;;;4732909;30;20099;-85
2022/01/28 18:57:31;;;;;;;8.43;2.90;;;6.60;99.90;;;;;;4718523;30;20083;-85
2022/01/28 18:59:58;;;;;;;6.40;3.30;;;6.60;99.90;;;;;;4711565;30;20049;-85
2022/01/28 19:02:27;;;;;;;10.95;3.40;;;6.50;99.90;;;;;;4727383;30;20045;-85
2022/01/28 19:04:54;;;;;;;10.30;3.53;;;6.50;99.90;;;;;;4711631;30;20572;-86
2022/01/28 19:07:20;;;;;;;12.32;3.65;;;6.50;99.90;;;;;;4716134;30;20044;-85
2022/01/28 19:09:45;;;;;;;12.95;4.00;;;6.50;99.90;;;;;;4734366;30;20467;-85
2022/01/28 19:12:18;;;;;;;12.00;4.43;;;6.50;99.90;;;;;;4732940;30;20149;-84
2022/01/28 19:14:47;;;;;;;12.93;4.47;;;6.40;99.90;;;;;;4730400;30;20123;-85
2022/01/28 19:17:13;;;;;;;13.70;5.10;;;6.40;99.90;;;;;;4730603;30;20045;-85
2022/01/28 19:19:39;;;;;;;9.85;5.30;;;6.40;99.90;;;;;;4735030;30;20575;-85
2022/01/28 19:22:04;;;;;;;14.23;6.13;;;6.40;99.90;;;;;;4731610;30;20476;-85
2022/01/28 19:24:30;;;;;;;18.90;7.95;;;6.30;99.90;;;;;;4735667;30;20079;-85
2022/01/28 19:26:55;;;;;;;16.85;9.15;;;6.30;99.90;;;;;;4726197;30;20080;-85
2022/01/28 19:29:21;;;;;;;28.88;11.02;;;6.40;99.90;;;;;;4730630;30;20484;-85
2022/01/28 19:31:46;;;;;;;19.15;10.32;;;6.30;99.90;;;;;;4726008;30;20091;-85
2022/01/28 19:34:12;;;;;;;20.33;10.95;;;6.30;99.90;;;;;;4715164;30;20048;-86
2022/01/28 19:36:38;;;;;;;21.92;12.70;;;6.30;99.90;;;;;;4728704;30;20142;-85
2022/01/28 19:39:04;;;;;;;22.58;11.85;;;6.40;99.90;;;;;;4734405;30;20102;-85
2022/01/28 19:41:30;;;;;;;20.50;10.93;;;6.30;99.90;;;;;;4728158;30;20081;-85
2022/01/28 19:43:56;;;;;;;22.13;11.68;;;6.30;99.90;;;;;;4729648;30;20102;-85
2022/01/28 19:46:22;;;;;;;25.52;11.98;;;6.40;99.90;;;;;;4737236;30;20056;-86
2022/01/28 19:48:48;;;;;;;28.80;12.77;;;6.40;99.90;;;;;;4733119;30;20055;-85
2022/01/28 19:51:17;;;;;;;24.60;12.93;;;6.40;99.90;;;;;;4721317;30;20495;-85
2022/01/28 19:53:42;;;;;;;27.80;13.88;;;6.40;99.90;;;;;;4724089;30;20119;-85
2022/01/28 19:56:09;;;;;;;27.17;14.32;;;6.40;99.90;;;;;;4733995;30;20175;-85
2022/01/28 19:58:35;;;;;;;23.40;12.77;;;6.40;99.90;;;;;;4741603;30;20044;-85
2022/01/28 20:01:01;;;;;;;22.45;11.45;;;6.40;99.90;;;;;;4738574;30;20458;-86
2022/01/28 20:03:27;;;;;;;22.58;12.93;;;6.50;99.90;;;;;;4741802;30;20079;-85
2022/01/28 20:05:52;;;;;;;25.95;11.82;;;6.50;99.90;;;;;;4737013;30;20099;-85
2022/01/28 20:08:18;;;;;;;26.98;12.93;;;6.40;99.90;;;;;;4719938;30;20044;-85
2022/01/28 20:10:43;;;;;;;21.02;12.25;;;6.40;99.90;;;;;;4743860;30;20044;-85
2022/01/28 20:13:09;;;;;;;22.30;12.10;;;6.50;99.90;;;;;;4742703;30;20117;-85
2022/01/28 20:15:35;;;;;;;23.98;12.13;;;6.50;99.90;;;;;;4741060;30;20044;-86
2022/01/28 20:18:01;;;;;;;26.65;10.98;;;6.40;99.90;;;;;;4734610;30;20497;-85
2022/01/28 20:20:27;;;;;;;22.10;12.25;;;6.50;99.90;;;;;;4718679;30;20136;-85